Time;durP1;ratioP1;P1;durP2;ratioP2;P2;SDS_P1;SDS_P2;PMS_P1;PMS_P2;Temp;Humidity;BMP_temperature;BMP_pressure;BME280_temperature;BME280_humidity;BME280_pressure;Samples;Min_cycle;Max_cycle;Signal;HPM_P1;HPM_P2
2022/08/02 00:00:10;;;;;;;4.40;2.80;;;;;;;30.55;34.73;100842.66;4934033;28;20554;-85
2022/08/02 00:02:37;;;;;;;3.70;2.88;;;;;;;30.56;35.17;100855.25;4935069;28;20250;-85
2022/08/02 00:05:04;;;;;;;3.78;3.00;;;;;;;30.53;35.04;100845.63;4919070;29;20329;-85
2022/08/02 00:07:31;;;;;;;5.00;4.07;;;;;;;30.61;34.91;100856.13;4932338;28;20687;-86
2022/08/02 00:10:07;;;;;;;14.70;3.92;;;;;;;30.17;35.16;100782.41;4929424;28;20067;-86
2022/08/02 00:12:34;;;;;;;6.68;3.75;;;;;;;30.46;34.95;100820.38;4931261;28;20412;-85
2022/08/02 00:15:02;;;;;;;5.10;3.30;;;;;;;30.39;35.07;100817.91;4898503;29;20060;-86
2022/08/02 00:17:28;;;;;;;3.95;3.45;;;;;;;30.51;34.71;100847.00;4900223;29;20162;-86
2022/08/02 00:19:55;;;;;;;4.90;3.83;;;;;;;30.17;35.18;100803.44;4915618;28;20095;-86
2022/08/02 00:22:22;;;;;;;8.77;3.45;;;;;;;30.45;35.40;100860.66;4915931;29;20371;-85
2022/08/02 00:24:48;;;;;;;6.47;3.92;;;;;;;30.44;35.34;100859.00;4915987;28;20070;-84
2022/08/02 00:27:15;;;;;;;4.40;3.17;;;;;;;30.22;35.54;100808.97;4899472;29;20498;-86
2022/08/02 00:29:42;;;;;;;5.22;3.40;;;;;;;29.58;35.52;100731.25;4916060;29;20413;-85
2022/08/02 00:32:19;;;;;;;4.25;2.92;;;;;;;30.50;35.05;100872.75;4901461;29;20060;-86
2022/08/02 00:34:46;;;;;;;4.25;3.28;;;;;;;29.53;35.43;100733.13;4900611;29;20390;-84
2022/08/02 00:37:13;;;;;;;7.10;3.55;;;;;;;30.39;34.90;100878.16;4920413;29;20044;-87
2022/08/02 00:39:41;;;;;;;5.57;3.70;;;;;;;29.38;35.11;100731.88;4905013;28;20504;-86
2022/08/02 00:42:08;;;;;;;7.40;3.28;;;;;;;30.17;35.32;100841.78;4930968;28;20166;-84
2022/08/02 00:44:36;;;;;;;6.60;3.85;;;;;;;30.30;35.40;100867.94;4915280;29;20547;-84
2022/08/02 00:47:02;;;;;;;4.80;3.50;;;;;;;30.23;36.19;100873.59;4899368;29;20693;-85
2022/08/02 00:49:29;;;;;;;3.65;3.17;;;;;;;30.15;35.86;100861.22;4915526;29;20063;-86
2022/08/02 00:51:58;;;;;;;3.88;3.53;;;;;;;30.02;35.95;100829.59;4914211;29;20118;-84
2022/08/02 00:54:25;;;;;;;4.03;3.60;;;;;;;30.17;36.26;100850.00;4915165;29;20066;-85
2022/08/02 00:56:52;;;;;;;3.58;2.97;;;;;;;30.26;35.51;100873.09;4914931;28;20082;-85
2022/08/02 00:59:18;;;;;;;5.35;3.25;;;;;;;30.04;35.44;100852.06;4915196;29;20459;-85
2022/08/02 01:01:45;;;;;;;4.50;3.50;;;;;;;30.20;35.69;100874.13;4915118;29;20413;-86
2022/08/02 01:04:25;;;;;;;5.68;3.75;;;;;;;30.17;36.06;100880.09;4914045;28;20245;-86
2022/08/02 01:07:02;;;;;;;5.50;3.13;;;;;;;30.07;36.17;100867.16;4928681;28;20675;-85
2022/08/02 01:09:39;;;;;;;4.88;3.15;;;;;;;30.07;35.92;100880.84;4913282;28;20596;-85
2022/08/02 01:12:06;;;;;;;4.05;3.33;;;;;;;29.56;36.39;100810.00;4914746;29;20059;-83
2022/08/02 01:14:33;;;;;;;4.78;3.17;;;;;;;29.78;35.62;100842.81;4914693;29;20055;-83
2022/08/02 01:17:26;;;;;;;8.45;3.42;;;;;;;30.06;36.25;100883.84;4914894;29;20051;-85
2022/08/02 01:20:11;;;;;;;4.28;3.15;;;;;;;30.09;36.39;100884.16;4914803;28;20062;-84
2022/08/02 01:22:56;;;;;;;7.20;3.42;;;;;;;30.01;36.49;100866.28;4930954;28;20063;-84
2022/08/02 01:25:42;;;;;;;4.72;3.63;;;;;;;30.05;36.98;100883.00;4929972;28;20075;-84
2022/08/02 01:28:46;;;;;;;10.65;4.18;;;;;;;29.97;37.15;100881.56;4930382;28;20518;-85
2022/08/02 01:31:46;;;;;;;8.77;3.88;;;;;;;29.73;37.87;100852.88;4930103;28;20067;-84
2022/08/02 01:34:23;;;;;;;5.38;3.25;;;;;;;29.51;37.74;100829.09;4907109;29;20185;-84
2022/08/02 01:36:57;;;;;;;4.97;3.78;;;;;;;29.61;38.08;100856.56;4898030;29;20058;-84
2022/08/02 01:39:27;;;;;;;9.63;3.58;;;;;;;29.67;38.21;100875.81;4898886;29;20307;-86
2022/08/02 01:41:59;;;;;;;6.22;4.45;;;;;;;29.46;38.64;100859.13;4914160;28;20126;-84
2022/08/02 01:44:29;;;;;;;5.28;4.00;;;;;;;29.57;38.16;100888.25;4914467;28;20048;-83
2022/08/02 01:47:00;;;;;;;5.15;3.95;;;;;;;29.39;37.93;100869.41;4898551;29;20354;-85
2022/08/02 01:49:29;;;;;;;4.93;3.45;;;;;;;29.34;37.95;100874.84;4900064;29;20054;-85
2022/08/02 01:54:46;;;;;;;6.00;3.45;;;;;;;29.33;38.15;100893.16;4899486;29;20142;-85
2022/08/02 01:57:14;;;;;;;6.45;3.85;;;;;;;29.06;38.16;100848.50;4899089;29;20320;-84
2022/08/02 01:59:44;;;;;;;7.13;3.85;;;;;;;29.28;38.69;100914.97;4900040;29;20051;-85
2022/08/02 02:02:12;;;;;;;9.45;4.20;;;;;;;29.21;39.84;100938.09;4916595;29;20068;-83
2022/08/02 02:04:41;;;;;;;5.60;3.35;;;;;;;28.97;40.93;100938.28;4909105;29;20630;-83
2022/08/02 02:07:09;;;;;;;8.70;3.72;;;;;;;28.78;41.78;100913.13;4939526;28;20560;-85
2022/08/02 02:09:38;;;;;;;8.50;4.60;;;;;;;28.82;41.99;100930.69;4926861;29;20534;-84
2022/08/02 02:12:18;;;;;;;9.15;4.30;;;;;;;28.64;43.03;100912.63;4927965;28;20061;-84
2022/08/02 02:14:47;;;;;;;11.65;4.30;;;;;;;28.80;43.02;100945.66;4942190;28;20470;-84
2022/08/02 02:17:20;;;;;;;14.80;4.53;;;;;;;28.60;43.89;100910.66;4927576;29;20089;-84
2022/08/02 02:20:10;;;;;;;8.07;4.57;;;;;;;28.52;44.67;100914.63;4941025;28;20550;-84
2022/08/02 02:22:37;;;;;;;6.38;3.85;;;;;;;28.30;45.36;100879.00;4942286;28;20169;-85
2022/08/02 02:25:06;;;;;;;9.70;4.20;;;;;;;28.47;45.11;100903.63;4926825;28;20505;-85
2022/08/02 02:27:41;;;;;;;9.70;4.40;;;;;;;28.44;45.82;100923.19;4944199;28;20647;-85
2022/08/02 02:30:11;;;;;;;4.95;3.85;;;;;;;28.41;46.60;100923.72;4927790;28;20061;-85
2022/08/02 02:32:40;;;;;;;5.13;4.13;;;;;;;28.44;47.02;100942.31;4942700;28;20062;-85
2022/08/02 02:35:09;;;;;;;8.60;4.25;;;;;;;28.22;47.05;100932.09;4944447;28;20200;-86
2022/08/02 02:37:37;;;;;;;9.02;4.13;;;;;;;28.34;47.41;100951.97;4947352;28;20078;-84
2022/08/02 02:40:04;;;;;;;6.07;4.15;;;;;;;28.18;47.64;100939.16;4932493;28;20058;-86
2022/08/02 02:42:33;;;;;;;5.57;4.18;;;;;;;28.15;48.26;100944.25;4949187;28;20566;-83
2022/08/02 02:45:02;;;;;;;5.22;4.53;;;;;;;28.27;48.65;100973.16;4933143;29;20591;-86
2022/08/02 02:47:30;;;;;;;7.30;4.88;;;;;;;28.22;49.05;100977.69;4932669;28;20123;-84
2022/08/02 02:50:08;;;;;;;6.78;5.07;;;;;;;28.07;49.60;100967.31;4932801;28;20058;-84
2022/08/02 02:52:37;;;;;;;10.80;4.93;;;;;;;28.13;49.82;100977.25;4948762;28;20663;-84
2022/08/02 02:55:06;;;;;;;6.78;4.47;;;;;;;28.02;50.93;100969.97;4932411;28;20413;-83
2022/08/02 02:57:34;;;;;;;8.88;4.75;;;;;;;27.54;51.29;100914.69;4948148;28;20058;-84
2022/08/02 03:00:12;;;;;;;6.47;4.28;;;;;;;27.44;51.40;100919.94;4947960;28;20133;-85
2022/08/02 03:02:41;;;;;;;7.68;5.57;;;;;;;27.87;52.00;100990.41;4931953;28;20150;-86
2022/08/02 03:05:10;;;;;;;5.35;4.28;;;;;;;27.72;52.48;100981.88;4933578;28;20454;-84
2022/08/02 03:07:39;;;;;;;15.38;5.25;;;;;;;27.90;52.60;101016.38;4931917;28;20326;-85
2022/08/02 03:10:06;;;;;;;6.40;4.13;;;;;;;26.98;53.28;100865.25;4932121;28;20051;-85
2022/08/02 03:12:34;;;;;;;9.40;4.30;;;;;;;27.72;53.99;100973.72;4948315;28;20062;-85
2022/08/02 03:15:06;;;;;;;4.80;4.22;;;;;;;27.77;54.75;100976.53;4932565;28;20301;-85
2022/08/02 03:17:36;;;;;;;;;;;;;;;27.97;56.05;101016.25;4949497;28;20145;-85
2022/08/02 03:20:12;;;;;;;8.18;4.38;;;;;;;27.80;55.78;101000.59;4949037;28;20565;-86
2022/08/02 03:22:40;;;;;;;6.30;4.53;;;;;;;27.53;55.86;100951.22;4932511;29;20154;-84
2022/08/02 03:25:08;;;;;;;4.97;3.80;;;;;;;27.83;56.29;100994.69;4948074;28;20055;-84
2022/08/02 03:27:35;;;;;;;9.63;4.68;;;;;;;28.03;56.57;101010.63;4947306;28;20075;-84
2022/08/02 03:30:04;;;;;;;5.55;4.00;;;;;;;28.07;56.40;101005.53;4948156;28;20074;-84
2022/08/02 03:32:32;;;;;;;5.05;3.97;;;;;;;27.59;56.43;100938.50;4931855;28;20058;-84
2022/08/02 03:34:58;;;;;;;5.85;4.45;;;;;;;28.04;57.18;101011.47;4932193;29;20497;-83
2022/08/02 03:37:26;;;;;;;6.30;3.72;;;;;;;27.34;57.26;100881.56;4932455;28;20133;-85
2022/08/02 03:39:53;;;;;;;5.70;4.03;;;;;;;27.94;57.22;100967.59;4934360;28;20051;-84
2022/08/02 03:42:21;;;;;;;6.40;3.63;;;;;;;27.59;58.70;100949.41;4932450;28;20451;-84
2022/08/02 03:44:49;;;;;;;3.92;3.13;;;;;;;27.95;58.39;101023.84;4948654;28;20504;-83
2022/08/02 03:47:17;;;;;;;11.10;4.07;;;;;;;27.39;58.44;100950.66;4934078;28;20230;-85
2022/08/02 03:49:45;;;;;;;3.75;3.10;;;;;;;27.85;58.42;101025.28;4946887;28;20062;-85
2022/08/02 03:52:12;;;;;;;6.65;3.08;;;;;;;27.86;57.70;101042.47;4945506;28;20079;-85
2022/08/02 03:54:39;;;;;;;9.90;3.20;;;;;;;27.71;55.86;101018.41;4945957;28;20471;-85
2022/08/02 03:57:12;;;;;;;11.77;3.35;;;;;;;28.03;54.85;101067.94;4945113;28;20218;-84
2022/08/02 03:59:44;;;;;;;8.10;3.20;;;;;;;28.09;53.89;101057.97;4929458;29;20599;-84
2022/08/02 04:02:12;;;;;;;8.20;3.40;;;;;;;28.12;53.48;101065.66;4928480;28;20067;-83
2022/08/02 04:04:39;;;;;;;9.95;3.97;;;;;;;27.94;53.77;101071.28;4944924;28;20087;-86
2022/08/02 04:07:06;;;;;;;13.40;3.65;;;;;;;27.95;53.50;101086.59;4945690;28;20524;-84
2022/08/02 04:09:33;;;;;;;8.50;3.03;;;;;;;27.64;53.62;101050.44;4929136;29;20094;-84
2022/08/02 04:12:00;;;;;;;7.80;3.05;;;;;;;27.86;53.53;101103.31;4944884;28;20127;-84
2022/08/02 04:14:27;;;;;;;8.27;3.13;;;;;;;27.80;53.65;101090.63;4944381;28;20059;-85
2022/08/02 04:17:01;;;;;;;11.55;3.03;;;;;;;28.00;53.94;101111.25;4944379;28;20926;-83
2022/08/02 04:19:39;;;;;;;11.23;3.78;;;;;;;28.07;53.75;101112.78;4929539;28;20384;-84
2022/08/02 04:22:15;;;;;;;12.07;3.35;;;;;;;27.86;54.15;101125.13;4944830;28;20043;-84
2022/08/02 04:24:48;;;;;;;8.95;3.70;;;;;;;27.69;54.45;101113.25;4945001;28;20054;-84
2022/08/02 04:27:18;;;;;;;10.52;3.08;;;;;;;27.03;54.83;101001.56;4944052;28;20062;-83
2022/08/02 04:30:06;;;;;;;12.55;3.60;;;;;;;27.35;55.34;101068.56;4941510;28;20410;-83
2022/08/02 04:32:34;;;;;;;16.33;3.70;;;;;;;27.02;54.79;101005.38;4927978;28;20062;-84
2022/08/02 04:35:01;;;;;;;7.07;3.03;;;;;;;27.26;54.82;101070.84;4932337;28;20126;-85
2022/08/02 04:37:49;;;;;;;8.25;3.30;;;;;;;27.74;54.96;101159.75;4929903;28;20051;-84
2022/08/02 04:40:35;;;;;;;9.00;3.10;;;;;;;27.76;54.69;101137.69;4942830;28;20689;-85
2022/08/02 04:43:02;;;;;;;8.80;3.70;;;;;;;27.67;55.05;101139.94;4944784;28;20568;-83
2022/08/02 04:45:29;;;;;;;12.65;3.47;;;;;;;27.60;54.71;101110.09;4929779;28;20059;-84
2022/08/02 04:47:56;;;;;;;11.40;3.42;;;;;;;27.74;54.45;101127.00;4928547;29;20051;-84
2022/08/02 04:50:31;;;;;;;11.45;3.50;;;;;;;27.71;53.77;101122.03;4942502;28;20657;-83
2022/08/02 04:52:58;;;;;;;9.90;3.35;;;;;;;27.09;53.36;101054.31;4944213;28;20105;-85
2022/08/02 04:55:27;;;;;;;7.95;2.83;;;;;;;27.69;53.38;101148.72;4928091;28;20075;-84
2022/08/02 04:57:56;;;;;;;12.15;3.47;;;;;;;27.83;53.21;101163.81;4944157;28;20062;-83
2022/08/02 05:00:24;;;;;;;7.75;3.38;;;;;;;27.55;52.93;101133.66;4934552;28;20094;-84
2022/08/02 05:02:51;;;;;;;13.10;3.95;;;;;;;27.80;52.88;101174.34;4944025;28;20087;-83
2022/08/02 05:05:18;;;;;;;19.38;3.45;;;;;;;27.60;52.44;101141.94;4934888;28;20319;-84
2022/08/02 05:07:45;;;;;;;9.77;3.42;;;;;;;27.89;52.42;101190.16;4930928;28;20730;-84
2022/08/02 05:10:12;;;;;;;12.50;3.53;;;;;;;27.59;52.15;101146.59;4947036;28;20075;-85
2022/08/02 05:12:39;;;;;;;6.38;2.97;;;;;;;27.79;52.30;101168.03;4954991;28;20067;-84
2022/08/02 05:15:07;;;;;;;10.23;3.13;;;;;;;27.77;53.00;101183.84;4954826;28;20055;-85
2022/08/02 05:17:38;;;;;;;11.50;3.00;;;;;;;27.78;54.02;101196.41;4944075;28;20059;-84
2022/08/02 05:20:17;;;;;;;7.88;2.90;;;;;;;27.88;53.78;101213.03;4943685;28;20047;-83
2022/08/02 05:22:44;;;;;;;7.85;3.13;;;;;;;27.47;54.26;101146.56;4943733;28;20122;-84
2022/08/02 05:25:11;;;;;;;8.30;3.00;;;;;;;27.81;54.44;101219.66;4943137;28;20062;-84
2022/08/02 05:27:38;;;;;;;9.40;3.40;;;;;;;26.66;54.25;101049.13;4943204;28;20051;-84
2022/08/02 05:30:05;;;;;;;7.85;2.83;;;;;;;27.64;54.27;101224.97;4944408;28;20055;-85
2022/08/02 05:32:33;;;;;;;8.48;3.15;;;;;;;27.62;54.96;101216.19;4944561;28;20063;-84
2022/08/02 05:35:00;;;;;;;7.10;2.90;;;;;;;27.74;53.76;101227.94;4939388;28;20179;-83
2022/08/02 05:37:28;;;;;;;16.23;3.13;;;;;;;27.73;53.81;101245.38;4928052;28;20051;-84
2022/08/02 05:39:57;;;;;;;13.57;3.38;;;;;;;27.40;54.04;101213.19;4943776;28;20062;-84
2022/08/02 05:42:26;;;;;;;11.30;3.15;;;;;;;27.66;54.08;101244.66;4929113;29;21025;-84
2022/08/02 05:44:54;;;;;;;17.67;3.30;;;;;;;26.78;53.25;101079.97;4929333;29;20438;-83
2022/08/02 05:47:22;;;;;;;11.52;3.30;;;;;;;26.91;53.83;101122.50;4927733;29;20058;-83
2022/08/02 05:49:49;;;;;;;14.70;3.20;;;;;;;27.45;54.05;101233.25;4927334;29;20181;-84
2022/08/02 05:52:18;;;;;;;10.65;2.95;;;;;;;27.43;53.55;101229.91;4943779;28;20051;-83
2022/08/02 05:54:54;;;;;;;17.33;3.92;;;;;;;27.10;53.58;101175.84;4943943;28;20145;-83
2022/08/02 05:58:01;;;;;;;14.18;3.10;;;;;;;27.65;53.97;101297.56;4943871;28;20534;-84
2022/08/02 06:00:35;;;;;;;14.93;3.83;;;;;;;27.62;54.24;101314.34;4943268;28;20057;-83
2022/08/02 06:03:16;;;;;;;7.65;3.65;;;;;;;27.64;54.28;101317.69;4928671;28;20063;-83
2022/08/02 06:06:01;;;;;;;12.52;3.60;;;;;;;27.68;54.52;101316.16;4937901;28;20248;-83
2022/08/02 06:08:36;;;;;;;10.70;2.70;;;;;;;27.70;54.43;101314.88;4947418;28;20207;-83
2022/08/02 06:11:05;;;;;;;7.43;2.80;;;;;;;27.64;54.57;101304.88;4923723;29;20552;-84
2022/08/02 06:13:33;;;;;;;10.95;2.50;;;;;;;27.66;54.38;101310.13;4923598;28;20146;-82
2022/08/02 06:16:01;;;;;;;8.55;2.30;;;;;;;27.44;54.34;101268.91;4923301;28;20047;-84
2022/08/02 06:18:28;;;;;;;10.73;3.60;;;;;;;26.99;55.27;101201.16;4906982;29;20059;-83
2022/08/02 06:20:58;;;;;;;9.65;2.67;;;;;;;27.79;55.04;101309.91;4920987;29;20189;-85
2022/08/02 06:23:46;;;;;;;14.30;3.15;;;;;;;27.95;54.79;101307.59;4927512;28;20051;-83
2022/08/02 06:26:26;;;;;;;8.73;2.58;;;;;;;27.81;54.41;101306.94;4942387;28;20425;-82
2022/08/02 06:28:55;;;;;;;9.52;2.60;;;;;;;27.86;53.41;101291.56;4942334;28;20533;-84
2022/08/02 06:31:21;;;;;;;9.93;2.63;;;;;;;27.56;53.37;101285.31;4930073;28;20062;-83
2022/08/02 06:33:48;;;;;;;7.15;2.17;;;;;;;27.52;52.41;101284.09;4945756;28;20079;-84
2022/08/02 06:36:23;;;;;;;9.07;2.63;;;;;;;27.59;52.32;101320.28;4937799;28;20134;-84
2022/08/02 06:38:59;;;;;;;5.97;1.85;;;;;;;27.60;52.81;101338.31;4943777;28;20151;-82
2022/08/02 06:41:30;;;;;;;14.38;2.42;;;;;;;27.21;52.87;101291.44;4941342;28;20070;-84
2022/08/02 06:44:02;;;;;;;12.80;2.38;;;;;;;27.05;52.84;101250.13;4927614;28;20082;-83
2022/08/02 06:46:48;;;;;;;14.50;2.40;;;;;;;27.75;52.37;101352.38;4925253;29;20569;-82
2022/08/02 06:49:35;;;;;;;8.13;1.90;;;;;;;27.36;52.62;101313.69;4938912;28;20058;-83
2022/08/02 06:52:28;;;;;;;5.75;2.08;;;;;;;27.68;52.04;101362.53;4939013;28;20062;-83
2022/08/02 06:55:00;;;;;;;12.05;2.95;;;;;;;27.67;51.77;101352.69;4940730;28;20051;-83
2022/08/02 06:57:27;;;;;;;6.18;2.05;;;;;;;27.75;51.69;101367.91;4941539;28;20505;-83
2022/08/02 06:59:54;;;;;;;8.60;2.15;;;;;;;27.85;51.11;101379.94;4942185;28;20103;-83
2022/08/02 07:02:21;;;;;;;5.28;2.25;;;;;;;27.96;50.55;101377.47;4942196;28;20059;-83
2022/08/02 07:04:49;;;;;;;7.60;1.88;;;;;;;28.00;50.54;101381.41;4926475;29;20133;-82
2022/08/02 07:07:16;;;;;;;5.35;1.88;;;;;;;28.12;51.05;101404.09;4928020;28;20235;-84
2022/08/02 07:09:42;;;;;;;6.63;2.25;;;;;;;27.84;51.28;101356.47;4942341;28;20115;-83
2022/08/02 07:12:29;;;;;;;8.18;1.73;;;;;;;27.91;50.29;101356.34;4940794;28;20531;-82
2022/08/02 07:14:56;;;;;;;4.63;1.63;;;;;;;28.22;49.43;101387.16;4942566;28;20568;-84
2022/08/02 07:17:22;;;;;;;4.35;1.73;;;;;;;28.36;48.33;101365.91;4928340;28;20571;-83
2022/08/02 07:19:49;;;;;;;5.65;1.58;;;;;;;28.51;47.99;101361.66;4942179;28;20549;-83
2022/08/02 07:22:18;;;;;;;7.53;1.58;;;;;;;28.61;46.62;101347.41;4942719;28;20047;-83
2022/08/02 07:24:44;;;;;;;3.88;1.77;;;;;;;28.44;46.80;101332.78;4943212;28;20054;-83
2022/08/02 07:27:11;;;;;;;4.05;1.48;;;;;;;28.59;47.19;101356.91;4946665;28;20051;-83
2022/08/02 07:29:40;;;;;;;2.90;1.58;;;;;;;28.28;46.77;101326.16;4930577;29;20054;-84
2022/08/02 07:32:16;;;;;;;4.85;2.20;;;;;;;28.45;46.70;101356.28;4931384;28;20468;-84
2022/08/02 07:34:45;;;;;;;3.30;1.42;;;;;;;28.37;46.45;101345.72;4946229;28;20067;-84
2022/08/02 07:37:24;;;;;;;3.58;1.50;;;;;;;28.46;46.41;101363.47;4944965;28;20345;-83
2022/08/02 07:40:12;;;;;;;7.22;1.83;;;;;;;28.52;46.27;101357.03;4931707;28;20047;-84
2022/08/02 07:42:53;;;;;;;6.45;1.65;;;;;;;28.62;46.42;101356.44;4945346;28;20166;-83
2022/08/02 07:45:25;;;;;;;4.70;1.58;;;;;;;28.91;44.98;101374.59;4932693;28;20047;-83
2022/08/02 07:47:52;;;;;;;4.70;1.23;;;;;;;28.02;44.40;101231.91;4946302;28;20077;-83
2022/08/02 07:50:20;;;;;;;3.42;1.45;;;;;;;28.96;43.17;101346.56;4946104;28;20121;-83
2022/08/02 07:52:48;;;;;;;6.28;1.25;;;;;;;28.55;43.57;101307.41;4946047;28;20098;-81
2022/08/02 07:55:16;;;;;;;4.63;1.38;;;;;;;29.04;43.09;101369.94;4945755;28;20118;-82
2022/08/02 07:57:44;;;;;;;6.53;1.25;;;;;;;28.50;42.72;101266.34;4946349;28;20539;-83
2022/08/02 08:00:14;;;;;;;3.90;1.33;;;;;;;29.02;42.62;101340.09;4951457;28;20534;-83
2022/08/02 08:02:42;;;;;;;2.17;1.15;;;;;;;29.21;42.12;101353.66;4938628;28;20122;-82
2022/08/02 08:05:09;;;;;;;1.27;0.90;;;;;;;29.21;41.41;101293.50;4930536;29;20325;-83
2022/08/02 08:07:36;;;;;;;2.17;1.20;;;;;;;29.69;40.76;101360.63;4956804;28;20083;-81
2022/08/02 08:10:05;;;;;;;3.45;1.77;;;;;;;29.50;41.52;101344.38;4946549;28;20307;-82
2022/08/02 08:12:31;;;;;;;3.13;1.40;;;;;;;29.41;41.77;101313.03;4946211;29;20083;-82
2022/08/02 08:14:58;;;;;;;4.88;1.20;;;;;;;29.50;40.80;101314.28;4945996;28;20483;-80
2022/08/02 08:17:25;;;;;;;3.50;1.30;;;;;;;29.70;40.61;101313.03;4945908;29;20078;-81
2022/08/02 08:19:51;;;;;;;5.45;1.42;;;;;;;29.76;39.90;101260.03;4929870;29;20561;-81
2022/08/02 08:22:19;;;;;;;3.53;1.40;;;;;;;29.99;39.78;101289.97;4945792;29;20102;-80
2022/08/02 08:24:47;;;;;;;5.38;1.38;;;;;;;29.69;40.24;101234.78;4947383;29;20059;-80
2022/08/02 08:27:15;;;;;;;3.72;1.40;;;;;;;30.03;39.48;101247.34;4931123;29;20657;-80
2022/08/02 08:29:42;;;;;;;2.65;1.45;;;;;;;30.26;38.73;101274.81;4962822;28;20055;-81
2022/08/02 08:32:10;;;;;;;1.20;0.95;;;;;;;30.35;38.96;101296.03;4947661;28;20047;-81
2022/08/02 08:34:46;;;;;;;3.75;1.50;;;;;;;30.49;38.88;101312.09;4933583;29;20063;-81
2022/08/02 08:37:14;;;;;;;3.80;1.33;;;;;;;30.56;38.75;101316.34;4950018;28;20075;-81
2022/08/02 08:39:47;;;;;;;3.75;1.25;;;;;;;30.14;38.62;101247.50;4932697;29;20091;-80
2022/08/02 08:42:23;;;;;;;3.50;1.20;;;;;;;30.56;38.57;101305.38;4930755;29;20397;-81
2022/08/02 08:44:50;;;;;;;1.38;1.27;;;;;;;30.54;38.57;101323.16;4947169;29;20149;-80
2022/08/02 08:47:19;;;;;;;2.20;1.15;;;;;;;30.51;37.90;101321.72;4946839;29;20060;-81
2022/08/02 08:49:50;;;;;;;2.85;1.20;;;;;;;30.33;37.96;101294.63;4947369;28;20055;-80
2022/08/02 08:52:19;;;;;;;1.95;1.42;;;;;;;30.22;38.39;101288.97;4930860;29;20088;-82
2022/08/02 08:54:47;;;;;;;3.63;1.25;;;;;;;30.46;38.41;101288.78;4932110;29;20056;-82
2022/08/02 08:57:18;;;;;;;4.45;1.30;;;;;;;30.79;38.79;101314.44;4946650;29;20159;-81
2022/08/02 08:59:45;;;;;;;2.42;1.40;;;;;;;30.40;38.48;101276.94;4946739;29;20142;-88
2022/08/02 09:02:12;;;;;;;5.93;1.40;;;;;;;30.82;38.28;101309.25;4936246;29;20067;-87
2022/08/02 09:04:49;;;;;;;4.90;1.35;;;;;;;30.43;37.71;101234.50;4964311;28;20450;-81
2022/08/02 09:07:22;;;;;;;1.73;1.48;;;;;;;30.67;37.46;101274.28;4965084;28;20055;-80
2022/08/02 09:09:48;;;;;;;2.25;1.08;;;;;;;30.57;37.68;101260.44;4965332;28;20055;-82
2022/08/02 09:12:16;;;;;;;2.00;1.25;;;;;;;30.61;37.86;101253.38;4965314;28;20110;-82
2022/08/02 09:14:45;;;;;;;6.10;1.70;;;;;;;30.76;37.35;101282.06;4949401;29;20047;-82
2022/08/02 09:17:16;;;;;;;3.78;1.10;;;;;;;30.49;36.98;101228.03;4965112;28;20383;-81
2022/08/02 09:19:43;;;;;;;4.30;1.40;;;;;;;30.41;37.56;101226.53;4949822;28;20055;-83
2022/08/02 09:22:13;;;;;;;1.90;1.13;;;;;;;30.36;36.89;101203.75;4965273;28;20058;-83
2022/08/02 09:24:47;;;;;;;1.38;1.20;;;;;;;30.78;37.37;101268.91;4965462;28;20146;-85
2022/08/02 09:27:20;;;;;;;1.73;1.30;;;;;;;30.29;37.69;101220.34;4949183;28;20520;-83
2022/08/02 09:29:50;;;;;;;2.22;1.60;;;;;;;30.59;37.86;101266.50;4949811;29;20058;-84
2022/08/02 09:32:44;;;;;;;6.10;1.60;;;;;;;30.65;38.10;101257.25;4949480;29;20055;-84
2022/08/02 09:35:11;;;;;;;4.05;2.13;;;;;;;30.70;38.00;101267.47;4949499;29;20079;-83
2022/08/02 09:37:38;;;;;;;1.50;1.23;;;;;;;30.39;37.55;101231.47;4965144;28;20047;-84
2022/08/02 09:40:08;;;;;;;2.83;1.30;;;;;;;30.56;37.43;101245.09;4950641;28;20051;-84
2022/08/02 09:42:35;;;;;;;4.35;1.30;;;;;;;30.44;37.30;101247.97;4965058;28;20044;-85
2022/08/02 09:45:02;;;;;;;1.80;1.30;;;;;;;30.35;37.74;101237.69;4950372;29;20391;-82
2022/08/02 09:47:29;;;;;;;3.63;1.58;;;;;;;30.34;37.70;101247.84;4964580;28;20054;-84
2022/08/02 09:49:57;;;;;;;5.05;1.50;;;;;;;30.39;37.52;101215.03;4965135;28;20058;-83
2022/08/02 09:52:28;;;;;;;2.97;1.25;;;;;;;30.70;37.29;101250.19;4949918;28;20500;-84
2022/08/02 09:55:10;;;;;;;9.00;3.10;;;;;;;30.74;37.00;101251.34;4963312;28;20047;-84
2022/08/02 09:57:37;;;;;;;3.30;1.35;;;;;;;30.76;36.38;101249.19;4964746;28;20051;-83
2022/08/02 10:00:11;;;;;;;4.50;1.27;;;;;;;30.58;36.81;101231.97;4965113;28;20066;-84
2022/08/02 10:03:05;;;;;;;2.13;1.10;;;;;;;30.73;36.33;101236.81;4961316;28;20167;-85
2022/08/02 10:05:52;;;;;;;1.58;1.15;;;;;;;30.38;36.23;101165.97;4962759;28;20379;-83
2022/08/02 10:08:28;;;;;;;1.38;1.08;;;;;;;30.63;35.67;101193.69;4958232;28;20541;-84
2022/08/02 10:11:01;;;;;;;1.27;1.05;;;;;;;30.92;35.24;101209.09;4948123;29;20063;-84
2022/08/02 10:13:34;;;;;;;2.55;1.27;;;;;;;31.16;34.91;101204.94;4965219;28;20057;-85
2022/08/02 10:16:01;;;;;;;8.50;1.17;;;;;;;31.23;34.92;101205.56;4964145;28;20082;-85
2022/08/02 10:18:28;;;;;;;3.85;1.02;;;;;;;30.55;33.94;101079.06;4964942;28;20090;-84
2022/08/02 10:21:14;;;;;;;2.95;1.40;;;;;;;31.59;33.80;101241.59;4949809;28;20059;-83
2022/08/02 10:23:43;;;;;;;2.35;1.05;;;;;;;31.67;34.39;101243.84;4949890;28;20069;-84
2022/08/02 10:26:13;;;;;;;0.80;0.73;;;;;;;30.76;34.48;101080.09;4948589;29;20137;-84
2022/08/02 10:28:41;;;;;;;4.28;1.30;;;;;;;31.94;33.99;101234.69;4950006;28;20054;-85
2022/08/02 10:31:09;;;;;;;2.35;1.02;;;;;;;31.12;34.20;101077.69;4949951;28;20158;-83
2022/08/02 10:33:37;;;;;;;2.97;1.13;;;;;;;31.14;33.65;101058.22;4964764;28;20062;-87
2022/08/02 10:36:07;;;;;;;1.20;1.10;;;;;;;31.62;33.11;101114.00;4953106;29;20047;-84
2022/08/02 10:38:34;;;;;;;7.03;1.30;;;;;;;32.55;32.67;101228.78;4965938;28;20066;-82
2022/08/02 10:41:02;;;;;;;1.63;1.17;;;;;;;32.45;32.50;101191.06;4965396;28;20118;-85
2022/08/02 10:43:34;;;;;;;2.45;1.10;;;;;;;33.11;31.83;101239.16;4949926;28;20541;-86
2022/08/02 10:46:20;;;;;;;2.63;1.40;;;;;;;33.48;30.17;101232.63;4965017;28;20051;-84
2022/08/02 10:49:17;;;;;;;1.90;1.30;;;;;;;33.60;30.30;101235.94;4964575;28;20117;-84
2022/08/02 10:52:06;;;;;;;1.25;1.13;;;;;;;33.44;30.33;101203.97;4942924;28;20138;-84
2022/08/02 10:54:48;;;;;;;6.25;1.30;;;;;;;33.34;30.07;101189.13;4929476;29;20063;-84
2022/08/02 10:57:20;;;;;;;3.28;1.17;;;;;;;33.53;29.98;101232.59;4938943;28;20054;-85
2022/08/02 10:59:48;;;;;;;1.73;1.08;;;;;;;32.70;30.12;101098.84;4965423;28;20051;-84
2022/08/02 11:02:42;;;;;;;1.05;0.95;;;;;;;33.52;30.25;101225.44;4952849;28;20556;-83
2022/08/02 11:05:20;;;;;;;2.08;1.20;;;;;;;33.74;29.91;101220.53;4968096;28;20082;-86
2022/08/02 11:07:48;;;;;;;1.10;0.93;;;;;;;33.74;29.38;101159.94;4964719;28;20497;-83
2022/08/02 11:10:37;;;;;;;4.82;1.00;;;;;;;34.14;28.96;101207.78;4932252;29;20047;-82
2022/08/02 11:13:09;;;;;;;1.63;1.10;;;;;;;34.40;28.89;101210.47;4934215;29;20059;-82
2022/08/02 11:15:59;;;;;;;1.63;0.90;;;;;;;34.34;28.52;101178.50;4948624;28;20126;-83
2022/08/02 11:18:45;;;;;;;1.30;1.17;;;;;;;34.74;28.22;101204.28;4945375;29;20204;-81
2022/08/02 11:21:25;;;;;;;1.15;1.05;;;;;;;34.20;28.69;101079.09;4966801;28;20568;-82
2022/08/02 11:23:52;;;;;;;2.47;0.75;;;;;;;35.19;27.95;101194.06;4966949;28;20059;-83
2022/08/02 11:26:30;;;;;;;2.30;0.90;;;;;;;35.33;27.34;101203.34;4967703;28;20532;-83
2022/08/02 11:29:03;;;;;;;7.47;1.02;;;;;;;35.18;27.71;101140.00;4967771;28;20122;-84
2022/08/02 11:31:38;;;;;;;3.35;1.13;;;;;;;35.56;27.11;101167.78;4967410;28;20043;-82
2022/08/02 11:34:05;;;;;;;4.15;1.13;;;;;;;35.59;27.16;101142.38;4967857;28;20051;-82
2022/08/02 11:36:50;;;;;;;2.78;1.08;;;;;;;35.66;27.15;101176.00;4966570;28;20174;-83
2022/08/02 11:39:22;;;;;;;2.97;1.27;;;;;;;35.84;26.69;101178.03;4965735;28;20509;-83
2022/08/02 11:41:56;;;;;;;1.27;1.15;;;;;;;35.84;27.02;101169.75;4967395;28;20071;-83
2022/08/02 11:44:25;;;;;;;1.65;1.25;;;;;;;36.13;27.01;101197.34;4967115;28;20145;-81
2022/08/02 11:46:56;;;;;;;1.40;1.30;;;;;;;35.91;26.79;101195.09;4951528;29;20186;-84